sensor_id;sensor_type;location;lat;lon;timestamp;pressure;altitude;pressure_sealevel;temperature;humidity
9307;BME280;4691;47.612;7.610;2023-03-14T00:00:58;96247.97;;;12.53;100.00
9307;BME280;4691;47.612;7.610;2023-03-14T00:03:23;96261.38;;;12.53;100.00
9307;BME280;4691;47.612;7.610;2023-03-14T00:05:48;96274.19;;;12.57;100.00
9307;BME280;4691;47.612;7.610;2023-03-14T00:08:13;96294.31;;;12.47;100.00
9307;BME280;4691;47.612;7.610;2023-03-14T00:10:39;96294.81;;;12.57;100.00
9307;BME280;4691;47.612;7.610;2023-03-14T00:13:04;96302.78;;;12.72;100.00
9307;BME280;4691;47.612;7.610;2023-03-14T00:15:32;96303.38;;;12.74;100.00
9307;BME280;4691;47.612;7.610;2023-03-14T00:17:58;96301.66;;;12.59;100.00
9307;BME280;4691;47.612;7.610;2023-03-14T00:20:23;96302.38;;;12.75;100.00
9307;BME280;4691;47.612;7.610;2023-03-14T00:22:49;96310.19;;;12.70;100.00
9307;BME280;4691;47.612;7.610;2023-03-14T00:25:14;96321.09;;;12.68;100.00
9307;BME280;4691;47.612;7.610;2023-03-14T00:27:39;96339.28;;;12.73;100.00
9307;BME280;4691;47.612;7.610;2023-03-14T00:30:05;96347.63;;;12.63;100.00
9307;BME280;4691;47.612;7.610;2023-03-14T00:32:32;96342.03;;;12.79;100.00
9307;BME280;4691;47.612;7.610;2023-03-14T00:34:58;96347.47;;;12.64;100.00
9307;BME280;4691;47.612;7.610;2023-03-14T00:37:23;96337.91;;;12.83;100.00
9307;BME280;4691;47.612;7.610;2023-03-14T00:39:51;96327.59;;;12.80;100.00
9307;BME280;4691;47.612;7.610;2023-03-14T00:42:16;96340.03;;;12.88;100.00
9307;BME280;4691;47.612;7.610;2023-03-14T00:44:41;96340.03;;;12.88;100.00
9307;BME280;4691;47.612;7.610;2023-03-14T00:47:07;96356.94;;;12.89;100.00
9307;BME280;4691;47.612;7.610;2023-03-14T00:49:32;96379.59;;;12.86;100.00
9307;BME280;4691;47.612;7.610;2023-03-14T00:51:57;96387.91;;;12.91;100.00
9307;BME280;4691;47.612;7.610;2023-03-14T00:54:23;96388.69;;;12.85;100.00
9307;BME280;4691;47.612;7.610;2023-03-14T00:56:48;96398.41;;;12.64;100.00
9307;BME280;4691;47.612;7.610;2023-03-14T00:59:15;96412.44;;;12.67;100.00
9307;BME280;4691;47.612;7.610;2023-03-14T01:01:40;96433.50;;;12.70;100.00
9307;BME280;4691;47.612;7.610;2023-03-14T01:04:06;96442.09;;;12.86;100.00
9307;BME280;4691;47.612;7.610;2023-03-14T01:06:32;96447.38;;;12.58;100.00
9307;BME280;4691;47.612;7.610;2023-03-14T01:08:57;96444.88;;;12.72;100.00
9307;BME280;4691;47.612;7.610;2023-03-14T01:11:32;96456.59;;;12.71;100.00
9307;BME280;4691;47.612;7.610;2023-03-14T01:13:58;96468.63;;;12.96;100.00
9307;BME280;4691;47.612;7.610;2023-03-14T01:16:25;96481.00;;;12.76;100.00
9307;BME280;4691;47.612;7.610;2023-03-14T01:18:51;96495.81;;;12.93;100.00
9307;BME280;4691;47.612;7.610;2023-03-14T01:21:22;96600.81;;;12.90;100.00
9307;BME280;4691;47.612;7.610;2023-03-14T01:23:48;96614.13;;;12.83;100.00
9307;BME280;4691;47.612;7.610;2023-03-14T01:26:16;96625.06;;;12.82;100.00
9307;BME280;4691;47.612;7.610;2023-03-14T01:28:44;96624.88;;;12.69;100.00
9307;BME280;4691;47.612;7.610;2023-03-14T01:31:10;96621.34;;;12.83;100.00
9307;BME280;4691;47.612;7.610;2023-03-14T01:33:36;96611.56;;;12.60;100.00
9307;BME280;4691;47.612;7.610;2023-03-14T01:36:03;96615.06;;;12.61;100.00
9307;BME280;4691;47.612;7.610;2023-03-14T01:38:30;96633.56;;;12.71;100.00
9307;BME280;4691;47.612;7.610;2023-03-14T01:40:57;96658.50;;;12.71;100.00
9307;BME280;4691;47.612;7.610;2023-03-14T01:43:23;96637.09;;;12.56;100.00
9307;BME280;4691;47.612;7.610;2023-03-14T01:48:25;96614.72;;;12.49;100.00
9307;BME280;4691;47.612;7.610;2023-03-14T01:50:51;96603.91;;;12.42;100.00
9307;BME280;4691;47.612;7.610;2023-03-14T01:53:16;96612.47;;;12.38;100.00
9307;BME280;4691;47.612;7.610;2023-03-14T01:55:46;96591.41;;;12.35;100.00
9307;BME280;4691;47.612;7.610;2023-03-14T01:58:12;96583.00;;;12.53;100.00
9307;BME280;4691;47.612;7.610;2023-03-14T02:00:39;96574.50;;;12.49;100.00
9307;BME280;4691;47.612;7.610;2023-03-14T02:03:24;96585.50;;;12.54;100.00
9307;BME280;4691;47.612;7.610;2023-03-14T02:05:53;96591.59;;;12.48;100.00
9307;BME280;4691;47.612;7.610;2023-03-14T02:08:22;96585.13;;;12.42;100.00
9307;BME280;4691;47.612;7.610;2023-03-14T02:10:50;96581.53;;;12.35;100.00
9307;BME280;4691;47.612;7.610;2023-03-14T02:13:19;96566.56;;;12.26;100.00
9307;BME280;4691;47.612;7.610;2023-03-14T02:15:46;96552.69;;;12.23;100.00
9307;BME280;4691;47.612;7.610;2023-03-14T02:18:12;96531.47;;;12.21;100.00
9307;BME280;4691;47.612;7.610;2023-03-14T02:24:00;96514.38;;;12.07;100.00
9307;BME280;4691;47.612;7.610;2023-03-14T02:26:36;96524.91;;;12.24;100.00
9307;BME280;4691;47.612;7.610;2023-03-14T02:29:03;96532.28;;;12.22;100.00
9307;BME280;4691;47.612;7.610;2023-03-14T02:31:29;96533.78;;;12.24;100.00
9307;BME280;4691;47.612;7.610;2023-03-14T02:33:58;96529.78;;;12.20;100.00
9307;BME280;4691;47.612;7.610;2023-03-14T02:36:25;96540.22;;;12.15;100.00
9307;BME280;4691;47.612;7.610;2023-03-14T02:39:15;96525.94;;;12.08;100.00
9307;BME280;4691;47.612;7.610;2023-03-14T02:41:44;96519.09;;;12.05;100.00
9307;BME280;4691;47.612;7.610;2023-03-14T02:44:11;96490.75;;;11.96;100.00
9307;BME280;4691;47.612;7.610;2023-03-14T02:46:36;96480.13;;;12.03;100.00
9307;BME280;4691;47.612;7.610;2023-03-14T02:49:04;96462.66;;;11.92;100.00
9307;BME280;4691;47.612;7.610;2023-03-14T02:51:32;96441.81;;;11.87;100.00
9307;BME280;4691;47.612;7.610;2023-03-14T02:53:58;96428.56;;;11.86;100.00
9307;BME280;4691;47.612;7.610;2023-03-14T02:56:23;96418.25;;;11.68;100.00
9307;BME280;4691;47.612;7.610;2023-03-14T02:58:49;96406.44;;;11.77;100.00
9307;BME280;4691;47.612;7.610;2023-03-14T03:01:14;96415.38;;;11.69;100.00
9307;BME280;4691;47.612;7.610;2023-03-14T03:03:39;96403.75;;;11.77;100.00
9307;BME280;4691;47.612;7.610;2023-03-14T03:06:05;96383.91;;;11.71;100.00
9307;BME280;4691;47.612;7.610;2023-03-14T03:08:31;96372.84;;;11.74;100.00
9307;BME280;4691;47.612;7.610;2023-03-14T03:10:58;96362.59;;;11.63;100.00
9307;BME280;4691;47.612;7.610;2023-03-14T03:13:24;96366.28;;;11.62;100.00
9307;BME280;4691;47.612;7.610;2023-03-14T03:15:49;96349.13;;;11.71;100.00
9307;BME280;4691;47.612;7.610;2023-03-14T03:19:33;96302.31;;;11.67;100.00
9307;BME280;4691;47.612;7.610;2023-03-14T03:21:59;96307.28;;;11.70;100.00
9307;BME280;4691;47.612;7.610;2023-03-14T03:24:26;96312.00;;;11.68;100.00
9307;BME280;4691;47.612;7.610;2023-03-14T03:26:51;96323.81;;;11.89;100.00
9307;BME280;4691;47.612;7.610;2023-03-14T03:29:16;96346.94;;;11.82;100.00
9307;BME280;4691;47.612;7.610;2023-03-14T03:31:42;96355.38;;;11.93;100.00
9307;BME280;4691;47.612;7.610;2023-03-14T03:34:07;96349.94;;;11.87;100.00
9307;BME280;4691;47.612;7.610;2023-03-14T03:36:33;96379.47;;;11.93;100.00
9307;BME280;4691;47.612;7.610;2023-03-14T03:38:59;96378.53;;;12.01;100.00
9307;BME280;4691;47.612;7.610;2023-03-14T03:41:24;96403.84;;;11.98;100.00
9307;BME280;4691;47.612;7.610;2023-03-14T03:43:50;96458.88;;;12.16;100.00
9307;BME280;4691;47.612;7.610;2023-03-14T03:46:15;96485.66;;;12.01;100.00
9307;BME280;4691;47.612;7.610;2023-03-14T03:48:40;96488.13;;;12.17;100.00
9307;BME280;4691;47.612;7.610;2023-03-14T03:51:06;96507.81;;;12.10;100.00
9307;BME280;4691;47.612;7.610;2023-03-14T03:53:31;96513.81;;;11.97;100.00
9307;BME280;4691;47.612;7.610;2023-03-14T03:55:57;96517.53;;;11.96;100.00
9307;BME280;4691;47.612;7.610;2023-03-14T03:58:22;96531.28;;;12.08;100.00
9307;BME280;4691;47.612;7.610;2023-03-14T04:00:47;96545.78;;;11.98;100.00
9307;BME280;4691;47.612;7.610;2023-03-14T04:03:12;96522.59;;;12.06;100.00
9307;BME280;4691;47.612;7.610;2023-03-14T04:05:38;96537.28;;;12.25;100.00
9307;BME280;4691;47.612;7.610;2023-03-14T04:08:04;96545.97;;;12.27;100.00
9307;BME280;4691;47.612;7.610;2023-03-14T04:10:29;96563.34;;;12.31;100.00
9307;BME280;4691;47.612;7.610;2023-03-14T04:12:55;96554.66;;;12.29;100.00
9307;BME280;4691;47.612;7.610;2023-03-14T04:15:20;96559.84;;;12.15;100.00
9307;BME280;4691;47.612;7.610;2023-03-14T04:17:45;96537.47;;;12.08;100.00
9307;BME280;4691;47.612;7.610;2023-03-14T04:20:11;96555.69;;;12.13;100.00
9307;BME280;4691;47.612;7.610;2023-03-14T04:22:38;96545.41;;;12.16;100.00
9307;BME280;4691;47.612;7.610;2023-03-14T04:25:03;96551.41;;;12.04;100.00
9307;BME280;4691;47.612;7.610;2023-03-14T04:27:29;96565.19;;;12.15;100.00
9307;BME280;4691;47.612;7.610;2023-03-14T04:29:54;96539.03;;;12.17;100.00
9307;BME280;4691;47.612;7.610;2023-03-14T04:32:20;96514.47;;;11.99;100.00
9307;BME280;4691;47.612;7.610;2023-03-14T04:34:45;96511.34;;;11.95;100.00
9307;BME280;4691;47.612;7.610;2023-03-14T04:37:11;96510.97;;;11.98;100.00
9307;BME280;4691;47.612;7.610;2023-03-14T04:39:36;96517.91;;;11.93;100.00
9307;BME280;4691;47.612;7.610;2023-03-14T04:42:01;96482.25;;;11.92;100.00
9307;BME280;4691;47.612;7.610;2023-03-14T04:44:27;96468.28;;;11.82;100.00
9307;BME280;4691;47.612;7.610;2023-03-14T04:46:52;96457.75;;;11.81;100.00
9307;BME280;4691;47.612;7.610;2023-03-14T04:49:17;96446.31;;;11.72;100.00
9307;BME280;4691;47.612;7.610;2023-03-14T04:51:42;96426.38;;;11.60;100.00
9307;BME280;4691;47.612;7.610;2023-03-14T04:54:08;96401.91;;;11.48;100.00
9307;BME280;4691;47.612;7.610;2023-03-14T04:56:34;96361.13;;;11.46;100.00
9307;BME280;4691;47.612;7.610;2023-03-14T04:58:59;96348.84;;;11.37;100.00
9307;BME280;4691;47.612;7.610;2023-03-14T05:01:24;96355.13;;;11.44;100.00
9307;BME280;4691;47.612;7.610;2023-03-14T05:03:50;96346.06;;;11.30;100.00
9307;BME280;4691;47.612;7.610;2023-03-14T05:06:15;96335.03;;;11.18;100.00
9307;BME280;4691;47.612;7.610;2023-03-14T05:08:40;96331.13;;;11.50;100.00
9307;BME280;4691;47.612;7.610;2023-03-14T05:11:06;96351.16;;;11.40;100.00
9307;BME280;4691;47.612;7.610;2023-03-14T05:13:31;96349.13;;;11.42;100.00
9307;BME280;4691;47.612;7.610;2023-03-14T05:16:04;96345.53;;;11.34;100.00
9307;BME280;4691;47.612;7.610;2023-03-14T05:18:29;96342.31;;;11.39;100.00
9307;BME280;4691;47.612;7.610;2023-03-14T05:20:54;96340.06;;;11.43;100.00
9307;BME280;4691;47.612;7.610;2023-03-14T05:23:20;96347.66;;;11.54;100.00
9307;BME280;4691;47.612;7.610;2023-03-14T05:25:45;96338.06;;;11.45;100.00
9307;BME280;4691;47.612;7.610;2023-03-14T05:28:10;96341.75;;;11.59;100.00
9307;BME280;4691;47.612;7.610;2023-03-14T05:30:36;96375.31;;;11.91;100.00
9307;BME280;4691;47.612;7.610;2023-03-14T05:33:01;96361.47;;;11.72;100.00
9307;BME280;4691;47.612;7.610;2023-03-14T05:35:26;96353.81;;;11.69;100.00
9307;BME280;4691;47.612;7.610;2023-03-14T05:37:52;96345.69;;;11.63;100.00
9307;BME280;4691;47.612;7.610;2023-03-14T05:40:17;96344.94;;;11.84;100.00
9307;BME280;4691;47.612;7.610;2023-03-14T05:42:42;96347.91;;;11.74;100.00
9307;BME280;4691;47.612;7.610;2023-03-14T05:45:08;96343.13;;;11.69;100.00
9307;BME280;4691;47.612;7.610;2023-03-14T05:47:33;96326.25;;;11.54;100.00
9307;BME280;4691;47.612;7.610;2023-03-14T05:49:58;96340.97;;;11.80;100.00
9307;BME280;4691;47.612;7.610;2023-03-14T05:52:24;96336.75;;;11.70;100.00
9307;BME280;4691;47.612;7.610;2023-03-14T05:54:49;96326.78;;;11.64;100.00
9307;BME280;4691;47.612;7.610;2023-03-14T05:57:14;96312.00;;;11.68;100.00
9307;BME280;4691;47.612;7.610;2023-03-14T05:59:39;96305.81;;;11.68;100.00
9307;BME280;4691;47.612;7.610;2023-03-14T06:02:05;96313.28;;;11.72;100.00
9307;BME280;4691;47.612;7.610;2023-03-14T06:04:30;96309.53;;;11.67;100.00
9307;BME280;4691;47.612;7.610;2023-03-14T06:06:55;96320.47;;;11.87;100.00
9307;BME280;4691;47.612;7.610;2023-03-14T06:09:21;96336.72;;;11.85;100.00
9307;BME280;4691;47.612;7.610;2023-03-14T06:11:48;96356.28;;;12.01;100.00
9307;BME280;4691;47.612;7.610;2023-03-14T06:14:13;96352.78;;;12.00;100.00
9307;BME280;4691;47.612;7.610;2023-03-14T06:16:39;96319.75;;;11.93;100.00
9307;BME280;4691;47.612;7.610;2023-03-14T06:19:04;96312.34;;;11.95;100.00
9307;BME280;4691;47.612;7.610;2023-03-14T06:21:29;96316.69;;;11.96;100.00
9307;BME280;4691;47.612;7.610;2023-03-14T06:23:55;96319.34;;;11.96;100.00
9307;BME280;4691;47.612;7.610;2023-03-14T06:26:20;96317.59;;;12.03;100.00
9307;BME280;4691;47.612;7.610;2023-03-14T06:28:46;96317.84;;;12.08;100.00
9307;BME280;4691;47.612;7.610;2023-03-14T06:31:12;96329.09;;;12.18;100.00
9307;BME280;4691;47.612;7.610;2023-03-14T06:33:37;96322.69;;;11.98;100.00
9307;BME280;4691;47.612;7.610;2023-03-14T06:36:03;96306.44;;;11.85;100.00
9307;BME280;4691;47.612;7.610;2023-03-14T06:38:28;96311.88;;;11.91;100.00
9307;BME280;4691;47.612;7.610;2023-03-14T06:40:53;96315.34;;;12.07;100.00
9307;BME280;4691;47.612;7.610;2023-03-14T06:43:18;96329.09;;;12.18;100.00
9307;BME280;4691;47.612;7.610;2023-03-14T06:45:44;96347.31;;;12.30;100.00
9307;BME280;4691;47.612;7.610;2023-03-14T06:48:09;96364.00;;;12.47;100.00
9307;BME280;4691;47.612;7.610;2023-03-14T06:50:34;96383.25;;;12.35;100.00
9307;BME280;4691;47.612;7.610;2023-03-14T06:53:00;96409.00;;;12.51;100.00
9307;BME280;4691;47.612;7.610;2023-03-14T06:55:25;96426.34;;;12.55;100.00
9307;BME280;4691;47.612;7.610;2023-03-14T06:57:51;96443.97;;;12.86;100.00
9307;BME280;4691;47.612;7.610;2023-03-14T07:00:16;96475.72;;;12.82;100.00
9307;BME280;4691;47.612;7.610;2023-03-14T07:02:42;96503.75;;;12.80;100.00
9307;BME280;4691;47.612;7.610;2023-03-14T07:05:07;96523.03;;;12.90;100.00
9307;BME280;4691;47.612;7.610;2023-03-14T07:07:35;96536.19;;;13.06;100.00
9307;BME280;4691;47.612;7.610;2023-03-14T07:10:00;96555.19;;;13.05;100.00
9307;BME280;4691;47.612;7.610;2023-03-14T07:12:25;96561.38;;;13.05;100.00
9307;BME280;4691;47.612;7.610;2023-03-14T07:14:51;96578.44;;;13.19;100.00
9307;BME280;4691;47.612;7.610;2023-03-14T07:17:16;96594.91;;;13.16;100.00
9307;BME280;4691;47.612;7.610;2023-03-14T07:19:41;96603.50;;;13.48;100.00
9307;BME280;4691;47.612;7.610;2023-03-14T07:22:06;96624.97;;;13.12;100.00
9307;BME280;4691;47.612;7.610;2023-03-14T07:24:32;96642.66;;;13.21;100.00
9307;BME280;4691;47.612;7.610;2023-03-14T07:26:57;96675.47;;;13.23;100.00
9307;BME280;4691;47.612;7.610;2023-03-14T07:29:22;96690.88;;;13.29;100.00
9307;BME280;4691;47.612;7.610;2023-03-14T07:31:48;96682.78;;;13.44;100.00
9307;BME280;4691;47.612;7.610;2023-03-14T07:34:13;96690.63;;;13.45;100.00
9307;BME280;4691;47.612;7.610;2023-03-14T07:36:38;96702.13;;;13.39;100.00
9307;BME280;4691;47.612;7.610;2023-03-14T07:39:04;96704.94;;;13.31;100.00
9307;BME280;4691;47.612;7.610;2023-03-14T07:41:30;96688.34;;;13.27;100.00
9307;BME280;4691;47.612;7.610;2023-03-14T07:43:55;96688.25;;;13.36;100.00
9307;BME280;4691;47.612;7.610;2023-03-14T07:46:20;96693.97;;;13.47;100.00
9307;BME280;4691;47.612;7.610;2023-03-14T07:48:46;96704.81;;;13.39;100.00
9307;BME280;4691;47.612;7.610;2023-03-14T07:51:11;96708.03;;;13.49;100.00
9307;BME280;4691;47.612;7.610;2023-03-14T07:53:36;96724.34;;;13.33;100.00
9307;BME280;4691;47.612;7.610;2023-03-14T07:56:02;96716.34;;;13.55;100.00
9307;BME280;4691;47.612;7.610;2023-03-14T07:58:27;96721.19;;;13.44;100.00
9307;BME280;4691;47.612;7.610;2023-03-14T08:00:52;96712.41;;;13.36;100.00
9307;BME280;4691;47.612;7.610;2023-03-14T08:03:18;96721.91;;;13.38;100.00
9307;BME280;4691;47.612;7.610;2023-03-14T08:05:46;96732.31;;;13.41;100.00
9307;BME280;4691;47.612;7.610;2023-03-14T08:08:12;96729.97;;;13.38;100.00
9307;BME280;4691;47.612;7.610;2023-03-14T08:10:37;96745.06;;;13.39;100.00
9307;BME280;4691;47.612;7.610;2023-03-14T08:13:02;96754.72;;;13.34;100.00
9307;BME280;4691;47.612;7.610;2023-03-14T08:15:29;96767.66;;;13.30;100.00
9307;BME280;4691;47.612;7.610;2023-03-14T08:17:55;96781.19;;;13.37;100.00
9307;BME280;4691;47.612;7.610;2023-03-14T08:20:22;96775.88;;;13.43;100.00
9307;BME280;4691;47.612;7.610;2023-03-14T08:22:48;96786.16;;;13.55;100.00
9307;BME280;4691;47.612;7.610;2023-03-14T08:27:48;96796.78;;;13.48;100.00
9307;BME280;4691;47.612;7.610;2023-03-14T08:30:15;96798.44;;;13.64;100.00
9307;BME280;4691;47.612;7.610;2023-03-14T08:32:41;96812.06;;;13.47;100.00
9307;BME280;4691;47.612;7.610;2023-03-14T08:35:06;96814.22;;;13.52;100.00
9307;BME280;4691;47.612;7.610;2023-03-14T08:37:32;96810.13;;;13.56;100.00
9307;BME280;4691;47.612;7.610;2023-03-14T08:39:58;96814.13;;;13.45;100.00
9307;BME280;4691;47.612;7.610;2023-03-14T08:42:23;96811.53;;;13.37;100.00
9307;BME280;4691;47.612;7.610;2023-03-14T08:44:50;96814.94;;;13.61;100.00
9307;BME280;4691;47.612;7.610;2023-03-14T08:47:15;96824.56;;;13.55;100.00
9307;BME280;4691;47.612;7.610;2023-03-14T08:49:41;96845.22;;;13.40;100.00
9307;BME280;4691;47.612;7.610;2023-03-14T08:52:06;96824.13;;;13.52;100.00
9307;BME280;4691;47.612;7.610;2023-03-14T08:54:31;96822.91;;;13.54;100.00
9307;BME280;4691;47.612;7.610;2023-03-14T08:56:57;96821.16;;;13.46;100.00
9307;BME280;4691;47.612;7.610;2023-03-14T08:59:23;96813.34;;;13.66;100.00
9307;BME280;4691;47.612;7.610;2023-03-14T09:01:48;96815.41;;;13.49;100.00
9307;BME280;4691;47.612;7.610;2023-03-14T09:04:14;96802.81;;;13.35;100.00
9307;BME280;4691;47.612;7.610;2023-03-14T09:06:39;96793.56;;;13.53;100.00
9307;BME280;4691;47.612;7.610;2023-03-14T09:09:04;96789.59;;;13.34;100.00
9307;BME280;4691;47.612;7.610;2023-03-14T09:11:30;96795.88;;;13.26;100.00
9307;BME280;4691;47.612;7.610;2023-03-14T09:13:55;96788.41;;;13.36;100.00
9307;BME280;4691;47.612;7.610;2023-03-14T09:16:21;96781.31;;;13.20;100.00
9307;BME280;4691;47.612;7.610;2023-03-14T09:18:46;96778.19;;;13.17;100.00
9307;BME280;4691;47.612;7.610;2023-03-14T09:21:11;96760.53;;;13.37;100.00
9307;BME280;4691;47.612;7.610;2023-03-14T09:23:37;96581.97;;;12.69;100.00
9307;BME280;4691;47.612;7.610;2023-03-14T09:26:03;96620.16;;;12.71;100.00
9307;BME280;4691;47.612;7.610;2023-03-14T09:28:29;96614.94;;;12.84;100.00
9307;BME280;4691;47.612;7.610;2023-03-14T09:30:55;96613.19;;;12.91;100.00
9307;BME280;4691;47.612;7.610;2023-03-14T09:33:20;96609.91;;;12.59;100.00
9307;BME280;4691;47.612;7.610;2023-03-14T09:35:46;96620.25;;;12.62;100.00
9307;BME280;4691;47.612;7.610;2023-03-14T09:38:11;96655.94;;;12.63;100.00
9307;BME280;4691;47.612;7.610;2023-03-14T09:40:37;96668.31;;;12.49;100.00
9307;BME280;4691;47.612;7.610;2023-03-14T09:43:03;96659.81;;;12.31;100.00
9307;BME280;4691;47.612;7.610;2023-03-14T09:45:33;96666.00;;;13.05;100.00
9307;BME280;4691;47.612;7.610;2023-03-14T09:47:59;96679.13;;;12.71;100.00
9307;BME280;4691;47.612;7.610;2023-03-14T09:50:31;96701.13;;;12.36;100.00
9307;BME280;4691;47.612;7.610;2023-03-14T09:53:02;96334.56;;;12.32;100.00
9307;BME280;4691;47.612;7.610;2023-03-14T09:55:31;96524.69;;;12.40;100.00
9307;BME280;4691;47.612;7.610;2023-03-14T09:58:00;96608.97;;;12.23;100.00
9307;BME280;4691;47.612;7.610;2023-03-14T10:00:29;96613.13;;;12.25;100.00
9307;BME280;4691;47.612;7.610;2023-03-14T10:05:40;96589.09;;;11.87;100.00
9307;BME280;4691;47.612;7.610;2023-03-14T10:08:09;96538.22;;;11.64;100.00
9307;BME280;4691;47.612;7.610;2023-03-14T10:10:35;95901.56;;;11.83;100.00
9307;BME280;4691;47.612;7.610;2023-03-14T10:15:35;96316.31;;;12.63;100.00
9307;BME280;4691;47.612;7.610;2023-03-14T10:18:02;96463.84;;;12.55;100.00
9307;BME280;4691;47.612;7.610;2023-03-14T10:20:36;96538.63;;;12.50;100.00
9307;BME280;4691;47.612;7.610;2023-03-14T10:23:17;96564.41;;;12.66;100.00
9307;BME280;4691;47.612;7.610;2023-03-14T10:25:46;96685.88;;;12.96;100.00
9307;BME280;4691;47.612;7.610;2023-03-14T10:28:28;96737.19;;;12.63;100.00
9307;BME280;4691;47.612;7.610;2023-03-14T10:30:55;96767.22;;;13.99;100.00
9307;BME280;4691;47.612;7.610;2023-03-14T10:33:23;96773.84;;;13.16;100.00
9307;BME280;4691;47.612;7.610;2023-03-14T10:36:17;96790.50;;;13.11;100.00
9307;BME280;4691;47.612;7.610;2023-03-14T10:38:43;96788.28;;;12.47;100.00
9307;BME280;4691;47.612;7.610;2023-03-14T10:41:26;96740.16;;;12.69;100.00
9307;BME280;4691;47.612;7.610;2023-03-14T10:43:54;96733.78;;;11.94;100.00
9307;BME280;4691;47.612;7.610;2023-03-14T10:46:23;96529.81;;;11.90;100.00
9307;BME280;4691;47.612;7.610;2023-03-14T10:48:49;96565.28;;;12.52;100.00
9307;BME280;4691;47.612;7.610;2023-03-14T10:51:24;96568.69;;;12.97;100.00
9307;BME280;4691;47.612;7.610;2023-03-14T10:53:59;96577.25;;;12.71;100.00
9307;BME280;4691;47.612;7.610;2023-03-14T10:56:26;96622.94;;;12.18;100.00
9307;BME280;4691;47.612;7.610;2023-03-14T10:58:54;96625.06;;;12.82;100.00
9307;BME280;4691;47.612;7.610;2023-03-14T11:01:39;96685.31;;;12.71;100.00
9307;BME280;4691;47.612;7.610;2023-03-14T11:07:02;96699.84;;;13.06;100.00
9307;BME280;4691;47.612;7.610;2023-03-14T11:15:34;96856.22;;;13.30;100.00
9307;BME280;4691;47.612;7.610;2023-03-14T11:23:28;96952.41;;;13.41;100.00
9307;BME280;4691;47.612;7.610;2023-03-14T11:26:27;96955.59;;;13.60;100.00
9307;BME280;4691;47.612;7.610;2023-03-14T11:31:40;96983.75;;;13.93;100.00
9307;BME280;4691;47.612;7.610;2023-03-14T11:34:31;97017.75;;;14.31;100.00
9307;BME280;4691;47.612;7.610;2023-03-14T11:37:04;97029.69;;;13.31;100.00
9307;BME280;4691;47.612;7.610;2023-03-14T11:39:43;97037.22;;;15.42;100.00
9307;BME280;4691;47.612;7.610;2023-03-14T11:42:15;97061.25;;;13.82;100.00
9307;BME280;4691;47.612;7.610;2023-03-14T11:44:45;97068.16;;;13.99;100.00
9307;BME280;4691;47.612;7.610;2023-03-14T11:50:12;97143.34;;;13.84;100.00
9307;BME280;4691;47.612;7.610;2023-03-14T11:52:46;97158.81;;;14.73;100.00
9307;BME280;4691;47.612;7.610;2023-03-14T11:55:32;97174.47;;;13.79;100.00
9307;BME280;4691;47.612;7.610;2023-03-14T11:58:23;97216.53;;;14.47;100.00
9307;BME280;4691;47.612;7.610;2023-03-14T12:00:51;97247.75;;;13.64;100.00
9307;BME280;4691;47.612;7.610;2023-03-14T12:06:09;97297.56;;;13.75;100.00
9307;BME280;4691;47.612;7.610;2023-03-14T12:08:49;97314.66;;;13.82;100.00
9307;BME280;4691;47.612;7.610;2023-03-14T12:11:39;97343.59;;;13.64;100.00
9307;BME280;4691;47.612;7.610;2023-03-14T12:14:36;97382.66;;;13.19;100.00
9307;BME280;4691;47.612;7.610;2023-03-14T12:17:21;97365.03;;;12.02;100.00
9307;BME280;4691;47.612;7.610;2023-03-14T12:19:58;97398.81;;;12.61;100.00
9307;BME280;4691;47.612;7.610;2023-03-14T12:22:30;97439.84;;;12.62;100.00
9307;BME280;4691;47.612;7.610;2023-03-14T12:25:06;97470.41;;;12.18;100.00
9307;BME280;4691;47.612;7.610;2023-03-14T12:38:10;97594.25;;;12.81;100.00
9307;BME280;4691;47.612;7.610;2023-03-14T12:40:54;97603.13;;;12.73;100.00
9307;BME280;4691;47.612;7.610;2023-03-14T12:43:29;97603.72;;;13.18;100.00
9307;BME280;4691;47.612;7.610;2023-03-14T12:48:57;97628.78;;;12.76;100.00
9307;BME280;4691;47.612;7.610;2023-03-14T12:51:46;97630.53;;;13.10;100.00
9307;BME280;4691;47.612;7.610;2023-03-14T12:57:19;97644.84;;;13.18;100.00
9307;BME280;4691;47.612;7.610;2023-03-14T12:59:52;97658.00;;;12.87;100.00
9307;BME280;4691;47.612;7.610;2023-03-14T13:02:28;97645.56;;;12.78;100.00
9307;BME280;4691;47.612;7.610;2023-03-14T13:05:02;97648.72;;;12.73;100.00
9307;BME280;4691;47.612;7.610;2023-03-14T13:07:34;97633.66;;;12.80;100.00
9307;BME280;4691;47.612;7.610;2023-03-14T13:10:23;97637.56;;;12.52;100.00
9307;BME280;4691;47.612;7.610;2023-03-14T13:12:53;97621.16;;;13.05;100.00
9307;BME280;4691;47.612;7.610;2023-03-14T13:17:48;97552.16;;;11.70;100.00
9307;BME280;4691;47.612;7.610;2023-03-14T13:20:21;96949.97;;;14.35;100.00
9307;BME280;4691;47.612;7.610;2023-03-14T13:22:48;97229.81;;;14.11;100.00
9307;BME280;4691;47.612;7.610;2023-03-14T13:25:15;97317.66;;;13.48;100.00
9307;BME280;4691;47.612;7.610;2023-03-14T13:27:42;97380.28;;;13.32;100.00
9307;BME280;4691;47.612;7.610;2023-03-14T13:30:24;97421.41;;;13.16;100.00
9307;BME280;4691;47.612;7.610;2023-03-14T13:32:52;97429.78;;;13.29;100.00
9307;BME280;4691;47.612;7.610;2023-03-14T13:35:21;97450.06;;;13.24;100.00
9307;BME280;4691;47.612;7.610;2023-03-14T13:37:46;97470.72;;;12.82;100.00
9307;BME280;4691;47.612;7.610;2023-03-14T13:40:27;97478.91;;;12.81;100.00
9307;BME280;4691;47.612;7.610;2023-03-14T13:48:15;97553.00;;;12.74;100.00
9307;BME280;4691;47.612;7.610;2023-03-14T13:50:46;97549.34;;;12.83;100.00
9307;BME280;4691;47.612;7.610;2023-03-14T13:53:14;97567.03;;;13.26;100.00
9307;BME280;4691;47.612;7.610;2023-03-14T13:55:39;97596.19;;;13.21;100.00
9307;BME280;4691;47.612;7.610;2023-03-14T13:58:05;97626.97;;;13.60;100.00
9307;BME280;4691;47.612;7.610;2023-03-14T14:00:30;97627.59;;;14.03;100.00
9307;BME280;4691;47.612;7.610;2023-03-14T14:02:58;97683.28;;;14.58;100.00
9307;BME280;4691;47.612;7.610;2023-03-14T14:05:26;97691.44;;;13.92;100.00
9307;BME280;4691;47.612;7.610;2023-03-14T14:07:53;97691.25;;;13.78;100.00
9307;BME280;4691;47.612;7.610;2023-03-14T14:10:19;97905.16;;;14.21;100.00
9307;BME280;4691;47.612;7.610;2023-03-14T14:13:06;97895.25;;;15.20;100.00
9307;BME280;4691;47.612;7.610;2023-03-14T14:15:39;97889.44;;;19.78;100.00